createdAt,value
2022-12-01T00:00:24.672Z,101547.8
2022-12-01T00:01:24.687Z,101537.48
2022-12-01T00:02:24.985Z,101539.28
2022-12-01T00:03:24.826Z,101542.31
2022-12-01T00:04:24.700Z,101547.22
2022-12-01T00:05:24.766Z,101544.09
2022-12-01T00:06:24.850Z,101545.44
2022-12-01T00:07:24.880Z,101542.72
2022-12-01T00:08:24.795Z,101542.78
2022-12-01T00:09:24.999Z,101541.14
2022-12-01T00:10:25.405Z,101539.34
2022-12-01T00:11:24.850Z,101541.8
2022-12-01T00:12:24.942Z,101543.85
2022-12-01T00:13:24.879Z,101541.03
2022-12-01T00:14:25.069Z,101543.81
2022-12-01T00:16:29.646Z,101539.79
2022-12-01T00:17:29.139Z,101541.01
2022-12-01T00:18:29.183Z,101540.89
2022-12-01T00:19:29.155Z,101539.33
2022-12-01T00:20:29.690Z,101539.52
2022-12-01T00:21:29.157Z,101539.82
2022-12-01T00:22:29.251Z,101535.5
2022-12-01T00:23:29.254Z,101542.62
2022-12-01T00:24:29.257Z,101539.8
2022-12-01T00:25:29.396Z,101539.79
2022-12-01T00:26:29.444Z,101542.56
2022-12-01T00:27:29.301Z,101540.41
2022-12-01T00:28:29.399Z,101542.31
2022-12-01T00:29:29.312Z,101543.42
2022-12-01T00:30:29.304Z,101541.38
2022-12-01T00:31:29.473Z,101542.55
2022-12-01T00:32:30.464Z,101544.05
2022-12-01T00:33:29.370Z,101543.53
2022-12-01T00:34:29.375Z,101540.95
2022-12-01T00:35:29.426Z,101544.31
2022-12-01T00:36:29.581Z,101543.77
2022-12-01T00:37:29.814Z,101542.74
2022-12-01T00:38:29.527Z,101545.14
2022-12-01T00:39:29.620Z,101542.55
2022-12-01T00:40:29.484Z,101543.34
2022-12-01T00:41:29.534Z,101544.26
2022-12-01T00:42:29.782Z,101542.39
2022-12-01T00:43:30.045Z,101549.12
2022-12-01T00:44:29.520Z,101549
2022-12-01T00:45:29.726Z,101546.52
2022-12-01T00:46:29.795Z,101544.67
2022-12-01T00:47:29.604Z,101542.72
2022-12-01T00:48:29.925Z,101542.19
2022-12-01T00:49:29.662Z,101543
2022-12-01T00:50:29.660Z,101542.35
2022-12-01T00:51:29.888Z,101541.2
2022-12-01T00:52:29.683Z,101536.62
2022-12-01T00:53:30.170Z,101541.33
2022-12-01T00:54:30.024Z,101535.95
2022-12-01T00:55:29.731Z,101539.33
2022-12-01T00:56:29.766Z,101532.17
2022-12-01T00:57:29.786Z,101530.8
2022-12-01T00:58:29.830Z,101530.7
2022-12-01T00:59:29.865Z,101526.11
2022-12-01T01:00:29.852Z,101529.91
2022-12-01T01:01:29.944Z,101532.2
2022-12-01T01:02:29.976Z,101534.48
2022-12-01T01:03:30.548Z,101534.7
2022-12-01T01:04:30.925Z,101535.31
2022-12-01T01:05:36.143Z,101533.77
2022-12-01T01:06:32.811Z,101529.23
2022-12-01T01:07:32.874Z,101529.41
2022-12-01T01:08:32.899Z,101529.71
2022-12-01T01:09:32.868Z,101532.64
2022-12-01T01:10:32.905Z,101532.76
2022-12-01T01:11:32.897Z,101527.23
2022-12-01T01:12:33.013Z,101527.69
2022-12-01T01:13:33.693Z,101530.92
2022-12-01T01:14:33.023Z,101522.7
2022-12-01T01:15:33.346Z,101522.41
2022-12-01T01:16:33.496Z,101519.64
2022-12-01T01:17:33.547Z,101520.23
2022-12-01T01:18:33.005Z,101518.2
2022-12-01T01:19:33.033Z,101518.24
2022-12-01T01:20:33.512Z,101514.05
2022-12-01T01:21:33.060Z,101514.41
2022-12-01T01:22:34.304Z,101516.7
2022-12-01T01:23:33.188Z,101517.64
2022-12-01T01:24:33.130Z,101517.01
2022-12-01T01:25:33.414Z,101513.88
2022-12-01T01:26:33.200Z,101514.05
2022-12-01T01:27:33.925Z,101516.15
2022-12-01T01:28:33.405Z,101514.57
2022-12-01T01:29:33.189Z,101512.11
2022-12-01T01:30:33.221Z,101508.21
2022-12-01T01:31:33.610Z,101511.83
2022-12-01T01:32:33.236Z,101510.92
2022-12-01T01:33:33.265Z,101515.28
2022-12-01T01:34:33.291Z,101507.47
2022-12-01T01:35:33.202Z,101505.52
2022-12-01T01:36:33.290Z,101507.52
2022-12-01T01:37:33.369Z,101513.59
2022-12-01T01:38:33.619Z,101510.98
2022-12-01T01:39:33.314Z,101512.43
2022-12-01T01:40:33.289Z,101508.77
2022-12-01T01:41:33.408Z,101509.28
2022-12-01T01:42:33.313Z,101510.48
2022-12-01T01:43:38.458Z,101506.72
2022-12-01T01:44:48.719Z,101512.08
2022-12-01T01:45:35.571Z,101508.58
2022-12-01T01:46:35.460Z,101508.88
2022-12-01T01:47:40.448Z,101514.46
2022-12-01T01:48:37.950Z,101511.16
2022-12-01T01:49:37.401Z,101515.38
2022-12-01T01:50:37.150Z,101509.83
2022-12-01T01:51:41.872Z,101511.28
2022-12-01T01:52:40.476Z,101505.27
2022-12-01T01:53:38.610Z,101503.04
2022-12-01T01:54:40.751Z,101501.77
2022-12-01T01:55:38.963Z,101498.7
2022-12-01T01:56:38.561Z,101499.39
2022-12-01T01:57:39.045Z,101497.09
2022-12-01T01:58:39.674Z,101497.98
2022-12-01T01:59:43.569Z,101502.09
2022-12-01T02:00:42.085Z,101496.76
2022-12-01T02:01:40.406Z,101495.34
2022-12-01T02:02:41.014Z,101494.64
2022-12-01T02:03:41.241Z,101496.89
2022-12-01T02:04:41.443Z,101494.97
2022-12-01T02:05:40.348Z,101492.04
2022-12-01T02:06:40.368Z,101492.66
2022-12-01T02:07:41.109Z,101496.66
2022-12-01T02:08:40.333Z,101496.17
2022-12-01T02:09:40.315Z,101497.03
2022-12-01T02:25:18.959Z,101497.38
2022-12-01T02:30:40.519Z,101504.53
2022-12-01T02:31:45.826Z,101510.35
2022-12-01T02:33:38.576Z,101510.16
2022-12-01T02:40:56.447Z,101506.25
2022-12-01T02:44:05.825Z,101502.3
2022-12-01T02:44:58.593Z,101506.33
2022-12-01T02:48:01.333Z,101497.11
2022-12-01T02:49:04.183Z,101496.23
2022-12-01T02:50:02.212Z,101503.81
2022-12-01T02:52:06.035Z,101504.8
2022-12-01T02:53:06.138Z,101501.94
2022-12-01T02:54:05.112Z,101499.03
2022-12-01T02:55:04.652Z,101505.78
2022-12-01T02:56:06.876Z,101500.27
2022-12-01T02:57:04.249Z,101505.76
2022-12-01T02:59:10.408Z,101501.41
2022-12-01T03:00:09.229Z,101498
2022-12-01T03:02:13.467Z,101500.63
2022-12-01T03:16:53.938Z,101494.76
2022-12-01T03:18:59.409Z,101490.97
2022-12-01T03:22:05.482Z,101479.41
2022-12-01T03:23:05.741Z,101478.12
2022-12-01T03:24:05.548Z,101482.12
2022-12-01T03:25:02.919Z,101477.94
2022-12-01T03:26:03.539Z,101478.05
2022-12-01T03:27:03.175Z,101478.03
2022-12-01T03:29:08.324Z,101479.09
2022-12-01T03:30:05.883Z,101482.11
2022-12-01T03:31:06.579Z,101481.8
2022-12-01T03:32:09.980Z,101481.38
2022-12-01T03:33:09.838Z,101481.41
2022-12-01T03:35:11.350Z,101481.17
2022-12-01T03:37:10.425Z,101474.67
2022-12-01T03:38:12.528Z,101475.69
2022-12-01T03:39:11.872Z,101480.98
2022-12-01T03:40:11.926Z,101473.36
2022-12-01T03:42:20.491Z,101477.22
2022-12-01T03:43:15.969Z,101479.39
2022-12-01T03:44:16.406Z,101480.2
2022-12-01T03:45:17.043Z,101481.62
2022-12-01T03:47:20.426Z,101487.95
2022-12-01T03:48:17.528Z,101485.74
2022-12-01T03:49:17.842Z,101483.62
2022-12-01T03:50:17.393Z,101488.1
2022-12-01T03:53:27.611Z,101482.24
2022-12-01T03:55:31.365Z,101479.2
2022-12-01T03:56:30.553Z,101478.34
2022-12-01T03:58:35.598Z,101481.17
2022-12-01T03:59:33.842Z,101480.27
2022-12-01T04:00:32.301Z,101483.24
2022-12-01T04:01:35.076Z,101483.72
2022-12-01T04:02:32.356Z,101482.98
2022-12-01T04:03:33.046Z,101489.39
2022-12-01T04:04:32.241Z,101482.38
2022-12-01T04:05:33.168Z,101481.8
2022-12-01T04:06:32.662Z,101482.09
2022-12-01T04:07:32.262Z,101480.27
2022-12-01T04:08:32.362Z,101479.83
2022-12-01T04:09:32.289Z,101481.31
2022-12-01T04:10:32.305Z,101480.34
2022-12-01T04:11:32.974Z,101480.19
2022-12-01T04:12:32.595Z,101482.37
2022-12-01T04:13:32.301Z,101484.77
2022-12-01T04:14:32.393Z,101482.44
2022-12-01T04:15:32.323Z,101483.41
2022-12-01T04:16:32.338Z,101481.44
2022-12-01T04:17:32.407Z,101484.3
2022-12-01T04:18:32.350Z,101481.83
2022-12-01T04:19:32.380Z,101481.11
2022-12-01T04:20:32.563Z,101482.59
2022-12-01T04:21:32.409Z,101482.01
2022-12-01T04:22:32.914Z,101480.4
2022-12-01T04:23:32.409Z,101476.97
2022-12-01T04:24:32.428Z,101479.77
2022-12-01T04:25:32.465Z,101481.22
2022-12-01T04:26:34.057Z,101482.25
2022-12-01T04:27:32.774Z,101477.69
2022-12-01T04:28:32.495Z,101477.12
2022-12-01T04:29:32.546Z,101478.22
2022-12-01T04:30:32.581Z,101474.59
2022-12-01T04:31:32.714Z,101475.54
2022-12-01T04:32:36.778Z,101475.28
2022-12-01T04:33:33.018Z,101473.04
2022-12-01T04:34:33.242Z,101472.69
2022-12-01T04:35:33.138Z,101473.66
2022-12-01T04:36:33.893Z,101470.97
2022-12-01T04:37:33.272Z,101470.44
2022-12-01T04:38:33.124Z,101473.88
2022-12-01T04:39:33.722Z,101471.3
2022-12-01T04:40:33.145Z,101478.79
2022-12-01T04:41:33.184Z,101470.8
2022-12-01T04:42:33.118Z,101471.6
2022-12-01T04:43:33.139Z,101468.64
2022-12-01T04:44:35.168Z,101472.09
2022-12-01T04:45:33.151Z,101474.72
2022-12-01T04:46:33.232Z,101473.43
2022-12-01T04:47:33.187Z,101475.62
2022-12-01T04:48:36.151Z,101475.64
2022-12-01T04:49:33.660Z,101483.01
2022-12-01T04:50:33.233Z,101475
2022-12-01T04:51:33.358Z,101473.37
2022-12-01T04:52:36.396Z,101471.19
2022-12-01T04:53:33.462Z,101482.08
2022-12-01T04:54:33.546Z,101472.43
2022-12-01T04:55:36.759Z,101469.22
2022-12-01T04:56:33.309Z,101470.98
2022-12-01T04:57:33.302Z,101463.65
2022-12-01T04:58:33.758Z,101461.45
2022-12-01T04:59:33.373Z,101458.61
2022-12-01T05:00:33.692Z,101460.79
2022-12-01T05:01:33.578Z,101465.34
2022-12-01T05:02:33.627Z,101464.12
2022-12-01T05:03:36.199Z,101467.36
2022-12-01T05:04:33.398Z,101466.45
2022-12-01T05:05:33.440Z,101468.34
2022-12-01T05:06:33.589Z,101470.73
2022-12-01T05:07:33.570Z,101473.53
2022-12-01T05:08:33.449Z,101476.45
2022-12-01T05:09:33.471Z,101476.41
2022-12-01T05:10:36.788Z,101469.52
2022-12-01T05:11:33.920Z,101471.58
2022-12-01T05:12:33.497Z,101473.61
2022-12-01T05:13:33.913Z,101473.81
2022-12-01T05:14:33.512Z,101477.75
2022-12-01T05:15:33.528Z,101477.02
2022-12-01T05:16:33.675Z,101478.62
2022-12-01T05:17:36.938Z,101473.91
2022-12-01T05:18:33.925Z,101476.76
2022-12-01T05:19:33.619Z,101474.56
2022-12-01T05:20:33.738Z,101475.3
2022-12-01T05:21:33.700Z,101475
2022-12-01T05:23:03.910Z,101473.88
2022-12-01T05:23:35.737Z,101467.1
2022-12-01T05:24:34.931Z,101463.84
2022-12-01T05:25:35.124Z,101468.58
2022-12-01T05:26:35.007Z,101467
2022-12-01T05:27:34.946Z,101466.06
2022-12-01T05:28:35.544Z,101469.09
2022-12-01T05:29:34.974Z,101465.09
2022-12-01T05:30:35.022Z,101468.97
2022-12-01T05:31:35.028Z,101467.5
2022-12-01T05:32:35.026Z,101462.36
2022-12-01T05:33:35.039Z,101467.14
2022-12-01T05:34:35.019Z,101470.18
2022-12-01T05:35:35.398Z,101471.34
2022-12-01T05:36:35.163Z,101472.27
2022-12-01T05:37:35.093Z,101475.03
2022-12-01T05:38:35.096Z,101474.69
2022-12-01T05:39:35.126Z,101470.64
2022-12-01T05:40:35.545Z,101473.88
2022-12-01T05:41:35.158Z,101472.62
2022-12-01T05:42:35.130Z,101478.25
2022-12-01T05:43:35.263Z,101479.17
2022-12-01T05:44:35.168Z,101475.21
2022-12-01T05:45:35.465Z,101475.95
2022-12-01T05:46:35.181Z,101473.44
2022-12-01T05:47:35.233Z,101478.41
2022-12-01T05:48:35.210Z,101479.2
2022-12-01T05:49:35.239Z,101479.62
2022-12-01T05:50:37.960Z,101479.69
2022-12-01T05:51:35.261Z,101484.13
2022-12-01T05:52:35.864Z,101479.99
2022-12-01T05:53:35.283Z,101483.33
2022-12-01T05:54:35.400Z,101484.36
2022-12-01T05:55:35.281Z,101480.63
2022-12-01T05:56:35.317Z,101486.16
2022-12-01T05:57:35.338Z,101487.46
2022-12-01T05:58:35.848Z,101484.75
2022-12-01T05:59:35.391Z,101487.72
2022-12-01T06:00:37.603Z,101487.77
2022-12-01T06:01:38.497Z,101489.89
2022-12-01T06:02:39.486Z,101487.19
2022-12-01T06:03:38.985Z,101484.64
2022-12-01T06:04:38.997Z,101488.83
2022-12-01T06:05:38.983Z,101492.62
2022-12-01T06:06:38.969Z,101489.83
2022-12-01T06:07:39.103Z,101495.81
2022-12-01T06:08:39.186Z,101492.83
2022-12-01T06:09:39.116Z,101492.14
2022-12-01T06:10:39.033Z,101494.73
2022-12-01T06:11:39.045Z,101499.17
2022-12-01T06:12:39.134Z,101496.25
2022-12-01T06:13:39.099Z,101502.8
2022-12-01T06:14:39.086Z,101502.36
2022-12-01T06:15:39.093Z,101503.84
2022-12-01T06:16:39.152Z,101510.09
2022-12-01T06:17:40.582Z,101511.62
2022-12-01T06:18:39.166Z,101514.62
2022-12-01T06:19:39.110Z,101514.61
2022-12-01T06:20:39.205Z,101516.57
2022-12-01T06:21:39.213Z,101513.7
2022-12-01T06:22:39.518Z,101514.85
2022-12-01T06:23:39.337Z,101519.66
2022-12-01T06:24:39.261Z,101517.82
2022-12-01T06:25:39.220Z,101525.11
2022-12-01T06:26:39.255Z,101524.41
2022-12-01T06:27:39.250Z,101523.84
2022-12-01T06:28:39.429Z,101524.97
2022-12-01T06:29:42.231Z,101523.37
2022-12-01T06:30:39.611Z,101525.7
2022-12-01T06:31:39.376Z,101520.94
2022-12-01T06:32:39.348Z,101521.52
2022-12-01T06:33:39.351Z,101519.5
2022-12-01T06:34:39.318Z,101522.34
2022-12-01T06:35:39.335Z,101516.2
2022-12-01T06:36:39.367Z,101520.95
2022-12-01T06:37:39.375Z,101516.25
2022-12-01T06:38:39.437Z,101521.91
2022-12-01T06:39:39.408Z,101521.05
2022-12-01T06:40:39.436Z,101519.14
2022-12-01T06:41:39.426Z,101521.66
2022-12-01T06:42:39.439Z,101520.52
2022-12-01T06:43:40.170Z,101521.3
2022-12-01T06:44:40.102Z,101518.06
2022-12-01T06:45:40.247Z,101519.25
2022-12-01T06:46:40.260Z,101517.77
2022-12-01T06:47:40.301Z,101515.88
2022-12-01T06:48:40.237Z,101514.36
2022-12-01T06:49:40.252Z,101516.14
2022-12-01T06:50:40.199Z,101520.38
2022-12-01T06:51:40.209Z,101517.06
2022-12-01T06:52:40.220Z,101517.05
2022-12-01T06:53:40.291Z,101519.66
2022-12-01T06:54:40.213Z,101515.66
2022-12-01T06:55:40.380Z,101521.34
2022-12-01T06:56:40.593Z,101522.27
2022-12-01T06:57:40.272Z,101522.25
2022-12-01T06:58:40.292Z,101522.56
2022-12-01T06:59:40.309Z,101519.55
2022-12-01T07:00:40.322Z,101521.27
2022-12-01T07:01:40.540Z,101518.38
2022-12-01T07:02:40.453Z,101525.67
2022-12-01T07:03:40.362Z,101521.03
2022-12-01T07:04:40.379Z,101521.52
2022-12-01T07:05:40.372Z,101522.27
2022-12-01T07:06:40.439Z,101523.98
2022-12-01T07:07:40.511Z,101523.38
2022-12-01T07:08:40.568Z,101518.59
2022-12-01T07:09:40.466Z,101519.09
2022-12-01T07:10:40.455Z,101520
2022-12-01T07:11:40.460Z,101517.39
2022-12-01T07:12:40.498Z,101519.42
2022-12-01T07:13:40.992Z,101516.24
2022-12-01T07:14:40.525Z,101514.97
2022-12-01T07:15:40.491Z,101518.45
2022-12-01T07:16:40.547Z,101516.94
2022-12-01T07:17:40.500Z,101519.08
2022-12-01T07:18:40.687Z,101517.7
2022-12-01T07:19:40.590Z,101516.81
2022-12-01T07:20:40.705Z,101512.79
2022-12-01T07:21:40.557Z,101511.49
2022-12-01T07:22:40.592Z,101509.04
2022-12-01T07:23:40.616Z,101509.25
2022-12-01T07:24:40.631Z,101507.73
2022-12-01T07:25:40.618Z,101515.26
2022-12-01T07:26:40.672Z,101513.17
2022-12-01T07:27:40.638Z,101514.44
2022-12-01T07:28:40.717Z,101515.37
2022-12-01T07:29:40.728Z,101513.77
2022-12-01T07:30:40.904Z,101514.56
2022-12-01T07:31:40.707Z,101515.25
2022-12-01T07:32:40.736Z,101512.6
2022-12-01T07:33:41.020Z,101511.33
2022-12-01T07:34:40.848Z,101511.28
2022-12-01T07:35:40.818Z,101509.45
2022-12-01T07:36:40.765Z,101507.15
2022-12-01T07:37:40.795Z,101509.37
2022-12-01T07:38:41.250Z,101499.73
2022-12-01T07:39:40.850Z,101500.34
2022-12-01T07:40:40.864Z,101499.16
2022-12-01T07:41:40.843Z,101494.61
2022-12-01T07:42:41.583Z,101497.98
2022-12-01T07:43:41.308Z,101500.81
2022-12-01T07:44:40.936Z,101498.84
2022-12-01T07:45:40.976Z,101500.92
2022-12-01T07:46:41.047Z,101503.44
2022-12-01T07:47:40.908Z,101498.84
2022-12-01T07:48:41.015Z,101501.69
2022-12-01T07:49:40.965Z,101498
2022-12-01T07:50:40.934Z,101498.55
2022-12-01T07:51:40.966Z,101500.69
2022-12-01T07:52:40.980Z,101495.23
2022-12-01T07:53:40.998Z,101499.27
2022-12-01T07:54:41.066Z,101499.62
2022-12-01T07:56:43.602Z,101495.33
2022-12-01T07:57:43.557Z,101496.25
2022-12-01T07:58:43.853Z,101499.09
2022-12-01T07:59:43.622Z,101499.16
2022-12-01T08:00:44.063Z,101504.81
2022-12-01T08:01:44.835Z,101502.34
2022-12-01T08:02:44.106Z,101502.83
2022-12-01T08:03:44.509Z,101499.52
2022-12-01T08:04:44.140Z,101499.56
2022-12-01T08:05:44.167Z,101497.55
2022-12-01T08:06:44.176Z,101497.52
2022-12-01T08:07:44.348Z,101494.73
2022-12-01T08:08:44.308Z,101490.22
2022-12-01T08:09:44.256Z,101492.27
2022-12-01T08:10:44.191Z,101492.42
2022-12-01T08:11:44.248Z,101498.48
2022-12-01T08:12:46.296Z,101490.16
2022-12-01T08:13:44.343Z,101489.14
2022-12-01T08:14:44.302Z,101489.95
2022-12-01T08:15:44.345Z,101494.33
2022-12-01T08:16:44.340Z,101493.34
2022-12-01T08:17:44.405Z,101488.75
2022-12-01T08:18:44.558Z,101480.69
2022-12-01T08:19:44.378Z,101487.46
2022-12-01T08:20:44.343Z,101489.22
2022-12-01T08:21:44.407Z,101492.44
2022-12-01T08:22:44.387Z,101491.35
2022-12-01T08:23:44.765Z,101492.77
2022-12-01T08:24:44.501Z,101497.65
2022-12-01T08:25:44.477Z,101497.72
2022-12-01T08:26:44.471Z,101502.92
2022-12-01T08:27:44.482Z,101501.55
2022-12-01T08:28:44.552Z,101501.8
2022-12-01T08:29:44.589Z,101500.5
2022-12-01T08:30:44.942Z,101497.57
2022-12-01T08:31:44.551Z,101496.02
2022-12-01T08:32:44.572Z,101494.59
2022-12-01T08:33:44.916Z,101493.02
2022-12-01T08:34:47.259Z,101493.55
2022-12-01T08:35:48.183Z,101493.69
2022-12-01T08:36:48.207Z,101498.27
2022-12-01T08:37:48.256Z,101494.32
2022-12-01T08:38:49.127Z,101494.3
2022-12-01T08:39:48.684Z,101493.53
2022-12-01T08:40:48.234Z,101491.88
2022-12-01T08:41:48.268Z,101490.47
2022-12-01T08:42:48.267Z,101491.37
2022-12-01T08:44:03.732Z,101495.92
2022-12-01T08:44:50.589Z,101494.66
2022-12-01T08:45:50.701Z,101492.96
2022-12-01T08:46:50.578Z,101486.64
2022-12-01T08:47:50.503Z,101482.95
2022-12-01T08:48:50.646Z,101487.54
2022-12-01T08:49:51.171Z,101485.12
2022-12-01T08:50:50.595Z,101490.02
2022-12-01T08:51:50.551Z,101485.2
2022-12-01T08:52:50.605Z,101487.09
2022-12-01T08:53:50.861Z,101490.42
2022-12-01T08:54:50.661Z,101493.72
2022-12-01T08:55:50.631Z,101485.2
2022-12-01T08:56:50.613Z,101486.67
2022-12-01T08:57:50.643Z,101486.08
2022-12-01T08:58:51.207Z,101483.25
2022-12-01T08:59:51.251Z,101484.1
2022-12-01T09:00:50.690Z,101483.52
2022-12-01T09:01:50.772Z,101481.66
2022-12-01T09:02:50.786Z,101475.5
2022-12-01T09:03:50.927Z,101479.8
2022-12-01T09:04:51.274Z,101478.54
2022-12-01T09:05:50.750Z,101485.88
2022-12-01T09:06:52.077Z,101489.77
2022-12-01T09:07:50.815Z,101487.28
2022-12-01T09:08:50.841Z,101488.3
2022-12-01T09:09:51.196Z,101485.11
2022-12-01T09:10:51.941Z,101476.56
2022-12-01T09:11:50.915Z,101470.34
2022-12-01T09:12:50.903Z,101470.67
2022-12-01T09:13:54.558Z,101478.16
2022-12-01T09:14:51.716Z,101478.86
2022-12-01T09:16:55.796Z,101494.25
2022-12-01T09:17:55.912Z,101490.3
2022-12-01T09:18:56.034Z,101492.45
2022-12-01T09:19:55.829Z,101495.08
2022-12-01T09:20:55.987Z,101487.32
2022-12-01T09:21:56.042Z,101487.62
2022-12-01T09:22:55.997Z,101481.48
2022-12-01T09:23:56.309Z,101484.22
2022-12-01T09:24:55.905Z,101488.32
2022-12-01T09:25:55.921Z,101489.81
2022-12-01T09:26:59.150Z,101490.62
2022-12-01T09:27:55.948Z,101495.78
2022-12-01T09:28:57.562Z,101490.88
2022-12-01T09:29:55.976Z,101487.42
2022-12-01T09:30:56.275Z,101489.37
2022-12-01T09:31:56.755Z,101487.34
2022-12-01T09:32:56.050Z,101487.41
2022-12-01T09:34:00.393Z,101487.97
2022-12-01T09:34:57.148Z,101482.88
2022-12-01T09:36:01.003Z,101479.83
2022-12-01T09:36:57.313Z,101481.56
2022-12-01T09:37:57.542Z,101480.33
2022-12-01T09:38:57.503Z,101477.83
2022-12-01T09:39:57.286Z,101483.14
2022-12-01T09:40:59.304Z,101483
2022-12-01T09:43:00.729Z,101477.36
2022-12-01T09:45:00.846Z,101476.45
2022-12-01T09:46:02.578Z,101474.96
2022-12-01T09:47:05.943Z,101475.42
2022-12-01T09:48:04.544Z,101474.55
2022-12-01T09:49:03.206Z,101478.58
2022-12-01T09:50:10.059Z,101481.17
2022-12-01T09:51:09.204Z,101479.48
2022-12-01T09:52:09.010Z,101474.84
2022-12-01T09:53:07.482Z,101481.12
2022-12-01T09:54:06.945Z,101480.18
2022-12-01T09:55:13.407Z,101481.83
2022-12-01T09:56:18.755Z,101478.01
2022-12-01T09:57:17.668Z,101478.47
2022-12-01T09:58:16.585Z,101474.28
2022-12-01T09:59:17.689Z,101475.43
2022-12-01T10:00:15.719Z,101472.64
2022-12-01T10:01:17.243Z,101478.81
2022-12-01T10:05:29.318Z,101478.19
2022-12-01T10:06:35.680Z,101472.28
2022-12-01T10:07:30.447Z,101472.39
2022-12-01T10:08:29.225Z,101469.03
2022-12-01T10:11:35.831Z,101462.61
2022-12-01T10:12:35.769Z,101464.84
2022-12-01T10:13:32.669Z,101466.32
2022-12-01T10:14:33.766Z,101457.93
2022-12-01T10:15:39.576Z,101460.2
2022-12-01T10:16:42.397Z,101461.22
2022-12-01T10:18:55.251Z,101452.41
2022-12-01T10:19:53.700Z,101452.38
2022-12-01T10:20:55.369Z,101455.42
2022-12-01T10:25:05.508Z,101463.62
2022-12-01T10:26:09.887Z,101462.62
2022-12-01T10:30:18.544Z,101456.23
2022-12-01T10:31:28.675Z,101458.41
2022-12-01T10:32:26.881Z,101459
2022-12-01T10:33:24.973Z,101452.76
2022-12-01T10:34:31.996Z,101455.52
2022-12-01T10:35:28.191Z,101455.03
2022-12-01T10:36:25.306Z,101453
2022-12-01T10:37:28.419Z,101454.33
2022-12-01T10:38:33.985Z,101449.89
2022-12-01T10:39:36.622Z,101450.42
2022-12-01T10:40:28.470Z,101448.06
2022-12-01T10:41:29.838Z,101451.46
2022-12-01T10:42:39.358Z,101453.62
2022-12-01T10:44:34.949Z,101448.89
2022-12-01T10:45:36.978Z,101445.38
2022-12-01T10:47:35.488Z,101442.56
2022-12-01T10:49:41.273Z,101440.53
2022-12-01T10:50:37.946Z,101435.3
2022-12-01T10:51:48.393Z,101438.52
2022-12-01T10:52:40.842Z,101445.41
2022-12-01T10:53:40.450Z,101443.92
2022-12-01T10:54:40.573Z,101447.69
2022-12-01T10:55:44.871Z,101445.16
2022-12-01T10:56:46.685Z,101445.69
2022-12-01T10:57:44.874Z,101442.94
2022-12-01T10:58:48.385Z,101443.44
2022-12-01T10:59:50.465Z,101440.88
2022-12-01T11:01:02.256Z,101443.84
2022-12-01T11:01:49.698Z,101447.39
2022-12-01T11:02:49.613Z,101442.79
2022-12-01T11:03:50.891Z,101441.18
2022-12-01T11:04:54.321Z,101433.5
2022-12-01T11:05:56.075Z,101432.64
2022-12-01T11:06:53.417Z,101431.37
2022-12-01T11:07:52.860Z,101431.55
2022-12-01T11:08:55.571Z,101430.78
2022-12-01T11:10:56.509Z,101433.92
2022-12-01T11:12:03.274Z,101433.27
2022-12-01T11:14:05.869Z,101435.67
2022-12-01T11:15:04.696Z,101433.14
2022-12-01T11:16:05.885Z,101436.98
2022-12-01T11:18:20.940Z,101434.92
2022-12-01T11:23:26.317Z,101436.36
2022-12-01T11:25:21.574Z,101439.42
2022-12-01T11:27:26.066Z,101441.79
2022-12-01T11:28:22.606Z,101442.04
2022-12-01T11:30:24.805Z,101441.72
2022-12-01T11:32:28.231Z,101444.26
2022-12-01T11:33:27.914Z,101443.66
2022-12-01T11:34:28.850Z,101444.84
2022-12-01T11:35:29.448Z,101448.59
2022-12-01T11:37:33.789Z,101455.41
2022-12-01T11:38:31.553Z,101450.73
2022-12-01T11:39:31.860Z,101450.2
2022-12-01T11:40:36.198Z,101451.73
2022-12-01T11:41:35.835Z,101451.58
2022-12-01T11:42:32.650Z,101457.16
2022-12-01T11:43:34.320Z,101453.97
2022-12-01T11:45:38.490Z,101454.75
2022-12-01T11:46:42.703Z,101446.61
2022-12-01T11:48:38.761Z,101447.69
2022-12-01T11:49:45.492Z,101441.07
2022-12-01T11:50:44.561Z,101442.64
2022-12-01T11:51:43.287Z,101447.22
2022-12-01T11:52:46.971Z,101447.16
2022-12-01T11:53:43.645Z,101445.76
2022-12-01T11:55:46.063Z,101444.03
2022-12-01T11:56:52.738Z,101441.28
2022-12-01T11:57:53.074Z,101441
2022-12-01T11:58:56.215Z,101433.41
2022-12-01T11:59:53.193Z,101437.88
2022-12-01T12:00:55.319Z,101437.84
2022-12-01T12:04:02.700Z,101434.66
2022-12-01T12:49:45.805Z,101417.81
2022-12-01T12:51:52.698Z,101419.66
2022-12-01T12:52:51.809Z,101417.88
2022-12-01T12:53:53.890Z,101417.36
2022-12-01T12:54:56.704Z,101417.76
2022-12-01T12:55:56.283Z,101410.38
2022-12-01T12:57:04.814Z,101413.72
2022-12-01T12:57:57.950Z,101410.99
2022-12-01T12:59:01.466Z,101412.36
2022-12-01T13:00:06.583Z,101419.15
2022-12-01T13:01:03.806Z,101414.88
2022-12-01T13:04:06.668Z,101406.66
2022-12-01T13:06:13.180Z,101405.38
2022-12-01T13:08:15.679Z,101407.62
2022-12-01T13:09:20.300Z,101403.83
2022-12-01T13:11:23.764Z,101404.16
2022-12-01T13:12:28.695Z,101403.19
2022-12-01T13:13:35.636Z,101406.33
2022-12-01T13:14:35.792Z,101407.17
2022-12-01T13:15:29.430Z,101411.45
2022-12-01T13:16:32.285Z,101412.2
2022-12-01T13:17:38.918Z,101418.84
2022-12-01T13:19:36.743Z,101420.28
2022-12-01T13:20:35.367Z,101425.07
2022-12-01T13:22:36.524Z,101427.41
2022-12-01T13:23:38.158Z,101423.31
2022-12-01T13:24:35.718Z,101425.28
2022-12-01T13:25:37.938Z,101427.16
2022-12-01T13:26:37.770Z,101427.18
2022-12-01T13:27:36.838Z,101430.92
2022-12-01T13:29:44.838Z,101435.23
2022-12-01T13:30:41.205Z,101434.72
2022-12-01T13:31:42.625Z,101436.5
2022-12-01T13:32:41.203Z,101435.45
2022-12-01T13:34:43.341Z,101434.16
2022-12-01T13:35:42.368Z,101433.25
2022-12-01T13:37:44.207Z,101427.16
2022-12-01T13:39:53.642Z,101430.23
2022-12-01T13:42:55.555Z,101430.89
2022-12-01T13:43:59.707Z,101431.48
2022-12-01T13:44:58.395Z,101434.78
2022-12-01T13:46:01.631Z,101438.92
2022-12-01T13:47:01.288Z,101439.5
2022-12-01T13:47:58.801Z,101436.84
2022-12-01T13:49:00.138Z,101440.09
2022-12-01T13:51:00.565Z,101441.72
2022-12-01T13:58:21.789Z,101433.09
2022-12-01T14:00:25.355Z,101438.36
2022-12-01T14:02:25.168Z,101433.42
2022-12-01T14:04:28.814Z,101435.45
2022-12-01T14:06:38.674Z,101435.83
2022-12-01T14:07:36.475Z,101428.95
2022-12-01T14:08:37.168Z,101429.02
2022-12-01T14:09:36.531Z,101427.62
2022-12-01T14:10:37.009Z,101425.52
2022-12-01T14:11:35.901Z,101428.42
2022-12-01T14:12:36.208Z,101427.83
2022-12-01T14:13:43.969Z,101423.64
2022-12-01T14:14:37.206Z,101423.38
2022-12-01T14:15:40.322Z,101428.55
2022-12-01T14:16:50.933Z,101424.36
2022-12-01T14:17:38.195Z,101422.95
2022-12-01T14:18:41.092Z,101424.44